sensor_id;sensor_type;location;lat;lon;timestamp;temperature;humidity
63202;DHT22;49296;48.188;11.566;2023-04-03T00:02:06;4.97;73.06
63202;DHT22;49296;48.188;11.566;2023-04-03T00:04:33;4.48;73.46
63202;DHT22;49296;48.188;11.566;2023-04-03T00:07:00;4.85;73.61
63202;DHT22;49296;48.188;11.566;2023-04-03T00:09:27;4.91;72.99
63202;DHT22;49296;48.188;11.566;2023-04-03T00:11:55;5.04;72.57
63202;DHT22;49296;48.188;11.566;2023-04-03T00:14:22;5.08;72.48
63202;DHT22;49296;48.188;11.566;2023-04-03T00:16:49;5.15;71.94
63202;DHT22;49296;48.188;11.566;2023-04-03T00:19:15;5.15;72.58
63202;DHT22;49296;48.188;11.566;2023-04-03T00:21:42;5.18;72.29
63202;DHT22;49296;48.188;11.566;2023-04-03T00:24:09;5.19;71.90
63202;DHT22;49296;48.188;11.566;2023-04-03T00:26:36;5.21;72.14
63202;DHT22;49296;48.188;11.566;2023-04-03T00:29:04;5.16;72.47
63202;DHT22;49296;48.188;11.566;2023-04-03T00:31:31;5.16;72.35
63202;DHT22;49296;48.188;11.566;2023-04-03T00:33:58;5.14;72.49
63202;DHT22;49296;48.188;11.566;2023-04-03T00:36:25;5.21;72.27
63202;DHT22;49296;48.188;11.566;2023-04-03T00:38:51;5.21;72.36
63202;DHT22;49296;48.188;11.566;2023-04-03T00:41:18;5.30;71.74
63202;DHT22;49296;48.188;11.566;2023-04-03T00:43:45;5.43;71.62
63202;DHT22;49296;48.188;11.566;2023-04-03T00:46:13;5.38;71.88
63202;DHT22;49296;48.188;11.566;2023-04-03T00:48:42;5.32;72.06
63202;DHT22;49296;48.188;11.566;2023-04-03T00:51:11;5.32;72.11
63202;DHT22;49296;48.188;11.566;2023-04-03T00:53:43;5.26;72.30
63202;DHT22;49296;48.188;11.566;2023-04-03T00:56:13;5.33;72.23
63202;DHT22;49296;48.188;11.566;2023-04-03T00:58:44;5.26;72.21
63202;DHT22;49296;48.188;11.566;2023-04-03T01:01:19;5.07;72.43
63202;DHT22;49296;48.188;11.566;2023-04-03T01:03:48;5.32;72.07
63202;DHT22;49296;48.188;11.566;2023-04-03T01:06:16;4.95;72.61
63202;DHT22;49296;48.188;11.566;2023-04-03T01:08:44;4.92;72.63
63202;DHT22;49296;48.188;11.566;2023-04-03T01:11:12;5.19;72.61
63202;DHT22;49296;48.188;11.566;2023-04-03T01:13:38;5.29;72.61
63202;DHT22;49296;48.188;11.566;2023-04-03T01:16:06;5.08;73.17
63202;DHT22;49296;48.188;11.566;2023-04-03T01:18:38;4.99;72.95
63202;DHT22;49296;48.188;11.566;2023-04-03T01:21:27;5.30;72.79
63202;DHT22;49296;48.188;11.566;2023-04-03T01:27:10;5.33;72.23
63202;DHT22;49296;48.188;11.566;2023-04-03T01:29:37;5.49;71.95
63202;DHT22;49296;48.188;11.566;2023-04-03T01:32:06;5.51;72.16
63202;DHT22;49296;48.188;11.566;2023-04-03T01:34:32;5.49;72.02
63202;DHT22;49296;48.188;11.566;2023-04-03T01:36:59;5.44;71.83
63202;DHT22;49296;48.188;11.566;2023-04-03T01:39:26;5.16;72.09
63202;DHT22;49296;48.188;11.566;2023-04-03T01:41:52;5.23;72.17
63202;DHT22;49296;48.188;11.566;2023-04-03T01:44:19;5.28;72.28
63202;DHT22;49296;48.188;11.566;2023-04-03T01:46:46;5.23;71.71
63202;DHT22;49296;48.188;11.566;2023-04-03T01:49:14;5.32;71.82
63202;DHT22;49296;48.188;11.566;2023-04-03T01:51:40;5.43;71.60
63202;DHT22;49296;48.188;11.566;2023-04-03T01:54:07;5.28;71.40
63202;DHT22;49296;48.188;11.566;2023-04-03T01:56:34;5.16;72.09
63202;DHT22;49296;48.188;11.566;2023-04-03T01:59:00;5.33;71.74
63202;DHT22;49296;48.188;11.566;2023-04-03T02:01:27;5.32;71.75
63202;DHT22;49296;48.188;11.566;2023-04-03T02:03:54;5.28;71.83
63202;DHT22;49296;48.188;11.566;2023-04-03T02:06:22;5.12;71.85
63202;DHT22;49296;48.188;11.566;2023-04-03T02:08:48;5.12;71.98
63202;DHT22;49296;48.188;11.566;2023-04-03T02:11:15;5.25;71.71
63202;DHT22;49296;48.188;11.566;2023-04-03T02:13:42;5.33;71.65
63202;DHT22;49296;48.188;11.566;2023-04-03T02:16:09;5.40;71.64
63202;DHT22;49296;48.188;11.566;2023-04-03T02:18:37;5.26;71.71
63202;DHT22;49296;48.188;11.566;2023-04-03T02:21:03;5.23;71.80
63202;DHT22;49296;48.188;11.566;2023-04-03T02:23:31;5.01;71.80
63202;DHT22;49296;48.188;11.566;2023-04-03T02:26:06;4.87;72.24
63202;DHT22;49296;48.188;11.566;2023-04-03T02:28:33;5.14;71.94
63202;DHT22;49296;48.188;11.566;2023-04-03T02:30:59;5.36;71.74
63202;DHT22;49296;48.188;11.566;2023-04-03T02:33:26;5.28;71.13
63202;DHT22;49296;48.188;11.566;2023-04-03T02:35:54;5.43;70.89
63202;DHT22;49296;48.188;11.566;2023-04-03T02:38:21;5.56;70.65
63202;DHT22;49296;48.188;11.566;2023-04-03T02:40:49;5.39;70.89
63202;DHT22;49296;48.188;11.566;2023-04-03T02:43:16;5.56;70.26
63202;DHT22;49296;48.188;11.566;2023-04-03T02:45:43;5.38;70.79
63202;DHT22;49296;48.188;11.566;2023-04-03T02:48:10;5.21;71.01
63202;DHT22;49296;48.188;11.566;2023-04-03T02:50:37;5.19;70.82
63202;DHT22;49296;48.188;11.566;2023-04-03T02:53:03;5.18;70.41
63202;DHT22;49296;48.188;11.566;2023-04-03T02:55:30;5.35;70.45
63202;DHT22;49296;48.188;11.566;2023-04-03T02:57:58;5.33;70.27
63202;DHT22;49296;48.188;11.566;2023-04-03T03:00:25;5.43;70.28
63202;DHT22;49296;48.188;11.566;2023-04-03T03:02:51;5.14;70.75
63202;DHT22;49296;48.188;11.566;2023-04-03T03:05:18;5.21;70.64
63202;DHT22;49296;48.188;11.566;2023-04-03T03:07:45;5.42;70.07
63202;DHT22;49296;48.188;11.566;2023-04-03T03:10:11;5.26;70.53
63202;DHT22;49296;48.188;11.566;2023-04-03T03:12:38;5.38;70.07
63202;DHT22;49296;48.188;11.566;2023-04-03T03:15:08;5.49;69.88
63202;DHT22;49296;48.188;11.566;2023-04-03T03:17:34;5.51;70.22
63202;DHT22;49296;48.188;11.566;2023-04-03T03:20:01;5.54;70.04
63202;DHT22;49296;48.188;11.566;2023-04-03T03:22:28;5.57;69.43
63202;DHT22;49296;48.188;11.566;2023-04-03T03:24:55;5.54;69.58
63202;DHT22;49296;48.188;11.566;2023-04-03T03:27:21;5.54;69.35
63202;DHT22;49296;48.188;11.566;2023-04-03T03:29:49;5.57;69.63
63202;DHT22;49296;48.188;11.566;2023-04-03T03:32:17;5.54;69.07
63202;DHT22;49296;48.188;11.566;2023-04-03T03:34:43;5.25;69.91
63202;DHT22;49296;48.188;11.566;2023-04-03T03:37:10;5.36;69.68
63202;DHT22;49296;48.188;11.566;2023-04-03T03:39:37;5.33;69.22
63202;DHT22;49296;48.188;11.566;2023-04-03T03:42:04;5.39;68.78
63202;DHT22;49296;48.188;11.566;2023-04-03T03:44:30;5.23;68.84
63202;DHT22;49296;48.188;11.566;2023-04-03T03:46:57;5.28;69.40
63202;DHT22;49296;48.188;11.566;2023-04-03T03:49:25;5.43;69.04
63202;DHT22;49296;48.188;11.566;2023-04-03T03:51:51;5.25;68.68
63202;DHT22;49296;48.188;11.566;2023-04-03T03:54:18;5.23;69.27
63202;DHT22;49296;48.188;11.566;2023-04-03T03:56:45;5.28;69.58
63202;DHT22;49296;48.188;11.566;2023-04-03T03:59:12;5.11;69.65
63202;DHT22;49296;48.188;11.566;2023-04-03T04:01:41;4.94;69.23
63202;DHT22;49296;48.188;11.566;2023-04-03T04:04:08;5.23;69.09
63202;DHT22;49296;48.188;11.566;2023-04-03T04:06:36;5.29;69.20
63202;DHT22;49296;48.188;11.566;2023-04-03T04:09:03;5.39;68.96
63202;DHT22;49296;48.188;11.566;2023-04-03T04:11:30;5.43;68.51
63202;DHT22;49296;48.188;11.566;2023-04-03T04:13:57;5.32;68.07
63202;DHT22;49296;48.188;11.566;2023-04-03T04:16:24;5.32;68.53
63202;DHT22;49296;48.188;11.566;2023-04-03T04:18:50;5.25;68.56
63202;DHT22;49296;48.188;11.566;2023-04-03T04:21:17;5.07;69.21
63202;DHT22;49296;48.188;11.566;2023-04-03T04:23:45;5.11;69.29
63202;DHT22;49296;48.188;11.566;2023-04-03T04:26:12;5.04;69.56
63202;DHT22;49296;48.188;11.566;2023-04-03T04:28:38;5.15;69.06
63202;DHT22;49296;48.188;11.566;2023-04-03T04:31:05;5.29;69.28
63202;DHT22;49296;48.188;11.566;2023-04-03T04:33:32;5.29;68.89
63202;DHT22;49296;48.188;11.566;2023-04-03T04:35:58;5.23;69.14
63202;DHT22;49296;48.188;11.566;2023-04-03T04:38:25;5.11;69.28
63202;DHT22;49296;48.188;11.566;2023-04-03T04:40:53;5.16;69.44
63202;DHT22;49296;48.188;11.566;2023-04-03T04:43:20;5.29;70.25
63202;DHT22;49296;48.188;11.566;2023-04-03T04:45:46;5.35;68.71
63202;DHT22;49296;48.188;11.566;2023-04-03T04:48:13;5.46;69.14
63202;DHT22;49296;48.188;11.566;2023-04-03T04:50:40;5.36;68.61
63202;DHT22;49296;48.188;11.566;2023-04-03T04:53:06;5.29;68.90
63202;DHT22;49296;48.188;11.566;2023-04-03T04:55:33;5.39;68.22
63202;DHT22;49296;48.188;11.566;2023-04-03T04:58:01;5.44;68.78
63202;DHT22;49296;48.188;11.566;2023-04-03T05:00:28;5.26;68.60
63202;DHT22;49296;48.188;11.566;2023-04-03T05:02:55;5.19;68.69
63202;DHT22;49296;48.188;11.566;2023-04-03T05:05:21;5.07;68.82
63202;DHT22;49296;48.188;11.566;2023-04-03T05:07:48;5.11;69.07
63202;DHT22;49296;48.188;11.566;2023-04-03T05:10:15;5.11;69.54
63202;DHT22;49296;48.188;11.566;2023-04-03T05:12:42;5.08;69.11
63202;DHT22;49296;48.188;11.566;2023-04-03T05:15:10;5.04;69.35
63202;DHT22;49296;48.188;11.566;2023-04-03T05:17:37;5.28;68.45
63202;DHT22;49296;48.188;11.566;2023-04-03T05:20:05;5.21;68.42
63202;DHT22;49296;48.188;11.566;2023-04-03T05:22:32;5.23;68.58
63202;DHT22;49296;48.188;11.566;2023-04-03T05:24:59;5.23;68.37
63202;DHT22;49296;48.188;11.566;2023-04-03T05:27:26;5.28;68.37
63202;DHT22;49296;48.188;11.566;2023-04-03T05:29:54;5.11;69.19
63202;DHT22;49296;48.188;11.566;2023-04-03T05:32:22;5.04;68.90
63202;DHT22;49296;48.188;11.566;2023-04-03T05:34:49;4.98;69.16
63202;DHT22;49296;48.188;11.566;2023-04-03T05:37:17;4.84;69.22
63202;DHT22;49296;48.188;11.566;2023-04-03T05:39:43;4.83;69.49
63202;DHT22;49296;48.188;11.566;2023-04-03T05:42:10;4.60;69.69
63202;DHT22;49296;48.188;11.566;2023-04-03T05:44:38;4.52;70.76
63202;DHT22;49296;48.188;11.566;2023-04-03T05:47:06;4.59;70.27
63202;DHT22;49296;48.188;11.566;2023-04-03T05:49:34;4.74;70.16
63202;DHT22;49296;48.188;11.566;2023-04-03T05:52:01;4.89;69.68
63202;DHT22;49296;48.188;11.566;2023-04-03T05:54:30;5.02;69.34
63202;DHT22;49296;48.188;11.566;2023-04-03T05:56:56;4.87;69.51
63202;DHT22;49296;48.188;11.566;2023-04-03T05:59:23;5.09;69.34
63202;DHT22;49296;48.188;11.566;2023-04-03T06:01:50;5.22;69.11
63202;DHT22;49296;48.188;11.566;2023-04-03T06:04:16;5.26;69.35
63202;DHT22;49296;48.188;11.566;2023-04-03T06:06:47;5.39;68.98
63202;DHT22;49296;48.188;11.566;2023-04-03T06:09:15;5.40;68.56
63202;DHT22;49296;48.188;11.566;2023-04-03T06:11:42;5.35;68.91
63202;DHT22;49296;48.188;11.566;2023-04-03T06:14:10;5.39;68.93
63202;DHT22;49296;48.188;11.566;2023-04-03T06:16:37;5.49;68.60
63202;DHT22;49296;48.188;11.566;2023-04-03T06:19:04;5.49;68.15
63202;DHT22;49296;48.188;11.566;2023-04-03T06:21:32;5.33;68.38
63202;DHT22;49296;48.188;11.566;2023-04-03T06:24:00;5.39;68.85
63202;DHT22;49296;48.188;11.566;2023-04-03T06:26:27;5.28;68.25
63202;DHT22;49296;48.188;11.566;2023-04-03T06:28:54;5.16;68.54
63202;DHT22;49296;48.188;11.566;2023-04-03T06:31:21;5.15;68.70
63202;DHT22;49296;48.188;11.566;2023-04-03T06:33:48;5.39;68.54
63202;DHT22;49296;48.188;11.566;2023-04-03T06:36:15;5.42;68.11
63202;DHT22;49296;48.188;11.566;2023-04-03T06:38:45;5.38;68.40
63202;DHT22;49296;48.188;11.566;2023-04-03T06:41:13;5.49;68.02
63202;DHT22;49296;48.188;11.566;2023-04-03T06:43:41;5.49;68.43
63202;DHT22;49296;48.188;11.566;2023-04-03T06:46:12;5.35;67.95
63202;DHT22;49296;48.188;11.566;2023-04-03T06:48:39;5.39;68.15
63202;DHT22;49296;48.188;11.566;2023-04-03T06:51:10;5.58;67.77
63202;DHT22;49296;48.188;11.566;2023-04-03T06:53:37;5.25;67.99
63202;DHT22;49296;48.188;11.566;2023-04-03T06:56:05;5.26;68.12
63202;DHT22;49296;48.188;11.566;2023-04-03T06:58:33;5.11;68.70
63202;DHT22;49296;48.188;11.566;2023-04-03T07:00:59;4.84;69.29
63202;DHT22;49296;48.188;11.566;2023-04-03T07:03:26;5.08;68.87
63202;DHT22;49296;48.188;11.566;2023-04-03T07:05:53;5.07;68.80
63202;DHT22;49296;48.188;11.566;2023-04-03T07:08:19;5.29;68.72
63202;DHT22;49296;48.188;11.566;2023-04-03T07:10:48;5.44;68.42
63202;DHT22;49296;48.188;11.566;2023-04-03T07:13:15;5.58;67.74
63202;DHT22;49296;48.188;11.566;2023-04-03T07:15:43;5.79;67.11
63202;DHT22;49296;48.188;11.566;2023-04-03T07:18:09;5.85;66.45
63202;DHT22;49296;48.188;11.566;2023-04-03T07:20:36;5.67;66.72
63202;DHT22;49296;48.188;11.566;2023-04-03T07:23:03;5.77;67.12
63202;DHT22;49296;48.188;11.566;2023-04-03T07:25:30;5.66;66.67
63202;DHT22;49296;48.188;11.566;2023-04-03T07:27:58;5.74;67.00
63202;DHT22;49296;48.188;11.566;2023-04-03T07:30:26;5.33;66.69
63202;DHT22;49296;48.188;11.566;2023-04-03T07:32:54;5.60;66.96
63202;DHT22;49296;48.188;11.566;2023-04-03T07:35:20;5.84;66.48
63202;DHT22;49296;48.188;11.566;2023-04-03T07:37:47;5.99;65.13
63202;DHT22;49296;48.188;11.566;2023-04-03T07:40:14;5.94;65.05
63202;DHT22;49296;48.188;11.566;2023-04-03T07:42:40;5.92;65.01
63202;DHT22;49296;48.188;11.566;2023-04-03T07:45:08;6.01;64.91
63202;DHT22;49296;48.188;11.566;2023-04-03T07:47:34;5.73;65.39
63202;DHT22;49296;48.188;11.566;2023-04-03T07:50:03;5.33;66.25
63202;DHT22;49296;48.188;11.566;2023-04-03T07:52:30;5.50;66.08
63202;DHT22;49296;48.188;11.566;2023-04-03T07:54:56;5.66;66.05
63202;DHT22;49296;48.188;11.566;2023-04-03T07:57:23;5.84;66.24
63202;DHT22;49296;48.188;11.566;2023-04-03T07:59:50;5.79;65.70
63202;DHT22;49296;48.188;11.566;2023-04-03T08:02:16;5.67;66.49
63202;DHT22;49296;48.188;11.566;2023-04-03T08:04:43;5.54;66.55
63202;DHT22;49296;48.188;11.566;2023-04-03T08:07:11;5.66;65.69
63202;DHT22;49296;48.188;11.566;2023-04-03T08:09:38;5.53;66.34
63202;DHT22;49296;48.188;11.566;2023-04-03T08:12:04;5.66;66.44
63202;DHT22;49296;48.188;11.566;2023-04-03T08:14:31;5.85;66.15
63202;DHT22;49296;48.188;11.566;2023-04-03T08:17:00;5.98;65.69
63202;DHT22;49296;48.188;11.566;2023-04-03T08:19:28;5.98;65.95
63202;DHT22;49296;48.188;11.566;2023-04-03T08:21:55;6.15;65.43
63202;DHT22;49296;48.188;11.566;2023-04-03T08:24:23;5.64;66.52
63202;DHT22;49296;48.188;11.566;2023-04-03T08:26:50;5.71;66.09
63202;DHT22;49296;48.188;11.566;2023-04-03T08:29:17;5.74;66.53
63202;DHT22;49296;48.188;11.566;2023-04-03T08:31:43;5.77;66.39
63202;DHT22;49296;48.188;11.566;2023-04-03T08:34:10;5.74;66.27
63202;DHT22;49296;48.188;11.566;2023-04-03T08:36:38;6.03;65.75
63202;DHT22;49296;48.188;11.566;2023-04-03T08:39:05;5.99;65.79
63202;DHT22;49296;48.188;11.566;2023-04-03T08:41:35;5.87;66.40
63202;DHT22;49296;48.188;11.566;2023-04-03T08:44:14;5.83;66.21
63202;DHT22;49296;48.188;11.566;2023-04-03T08:46:55;5.92;66.59
63202;DHT22;49296;48.188;11.566;2023-04-03T08:49:25;6.03;66.34
63202;DHT22;49296;48.188;11.566;2023-04-03T08:51:54;6.26;65.03
63202;DHT22;49296;48.188;11.566;2023-04-03T08:54:26;6.26;65.11
63202;DHT22;49296;48.188;11.566;2023-04-03T08:56:56;6.26;64.36
63202;DHT22;49296;48.188;11.566;2023-04-03T08:59:28;6.30;64.11
63202;DHT22;49296;48.188;11.566;2023-04-03T09:01:57;6.34;63.50
63202;DHT22;49296;48.188;11.566;2023-04-03T09:04:26;6.39;62.97
63202;DHT22;49296;48.188;11.566;2023-04-03T09:06:56;6.29;63.69
63202;DHT22;49296;48.188;11.566;2023-04-03T09:09:31;6.26;63.73
63202;DHT22;49296;48.188;11.566;2023-04-03T09:12:11;6.40;63.46
63202;DHT22;49296;48.188;11.566;2023-04-03T09:14:46;6.51;63.31
63202;DHT22;49296;48.188;11.566;2023-04-03T09:17:21;6.63;62.61
63202;DHT22;49296;48.188;11.566;2023-04-03T09:19:56;6.57;63.02
63202;DHT22;49296;48.188;11.566;2023-04-03T09:22:26;6.70;62.74
63202;DHT22;49296;48.188;11.566;2023-04-03T09:24:57;6.74;62.69
63202;DHT22;49296;48.188;11.566;2023-04-03T09:27:26;6.75;63.90
63202;DHT22;49296;48.188;11.566;2023-04-03T09:29:54;6.71;62.90
63202;DHT22;49296;48.188;11.566;2023-04-03T09:32:26;6.41;63.65
63202;DHT22;49296;48.188;11.566;2023-04-03T09:34:54;6.58;62.89
63202;DHT22;49296;48.188;11.566;2023-04-03T09:37:37;6.58;63.19
63202;DHT22;49296;48.188;11.566;2023-04-03T09:40:06;6.63;62.28
63202;DHT22;49296;48.188;11.566;2023-04-03T09:42:56;6.43;62.99
63202;DHT22;49296;48.188;11.566;2023-04-03T09:45:25;6.50;63.26
63202;DHT22;49296;48.188;11.566;2023-04-03T09:48:05;6.48;62.10
63202;DHT22;49296;48.188;11.566;2023-04-03T09:50:32;6.63;61.82
63202;DHT22;49296;48.188;11.566;2023-04-03T09:53:05;6.68;62.90
63202;DHT22;49296;48.188;11.566;2023-04-03T09:55:42;6.72;63.08
63202;DHT22;49296;48.188;11.566;2023-04-03T09:58:26;6.39;62.78
63202;DHT22;49296;48.188;11.566;2023-04-03T10:00:55;5.91;64.93
63202;DHT22;49296;48.188;11.566;2023-04-03T10:03:25;5.84;65.11
63202;DHT22;49296;48.188;11.566;2023-04-03T10:05:52;6.01;65.05
63202;DHT22;49296;48.188;11.566;2023-04-03T10:08:22;6.12;64.73
63202;DHT22;49296;48.188;11.566;2023-04-03T10:11:10;6.23;64.99
63202;DHT22;49296;48.188;11.566;2023-04-03T10:13:50;6.19;65.93
63202;DHT22;49296;48.188;11.566;2023-04-03T10:16:19;6.13;66.21
63202;DHT22;49296;48.188;11.566;2023-04-03T10:18:56;6.03;66.07
63202;DHT22;49296;48.188;11.566;2023-04-03T10:21:32;6.09;66.56
63202;DHT22;49296;48.188;11.566;2023-04-03T10:24:08;6.32;65.37
63202;DHT22;49296;48.188;11.566;2023-04-03T10:26:41;6.23;65.36
63202;DHT22;49296;48.188;11.566;2023-04-03T10:29:30;6.37;65.11
63202;DHT22;49296;48.188;11.566;2023-04-03T10:32:15;6.46;63.98
63202;DHT22;49296;48.188;11.566;2023-04-03T10:34:46;6.44;62.83
63202;DHT22;49296;48.188;11.566;2023-04-03T10:37:20;6.34;63.49
63202;DHT22;49296;48.188;11.566;2023-04-03T10:39:54;6.46;63.20
63202;DHT22;49296;48.188;11.566;2023-04-03T10:42:28;6.18;63.44
63202;DHT22;49296;48.188;11.566;2023-04-03T10:45:10;6.36;63.38
63202;DHT22;49296;48.188;11.566;2023-04-03T10:47:46;6.25;62.97
63202;DHT22;49296;48.188;11.566;2023-04-03T10:50:27;6.40;61.39
63202;DHT22;49296;48.188;11.566;2023-04-03T10:52:59;6.41;61.65
63202;DHT22;49296;48.188;11.566;2023-04-03T10:55:34;6.54;61.33
63202;DHT22;49296;48.188;11.566;2023-04-03T10:58:02;6.54;62.16
63202;DHT22;49296;48.188;11.566;2023-04-03T11:00:36;6.58;60.57
63202;DHT22;49296;48.188;11.566;2023-04-03T11:03:06;6.46;61.05
63202;DHT22;49296;48.188;11.566;2023-04-03T11:05:40;6.61;62.08
63202;DHT22;49296;48.188;11.566;2023-04-03T11:08:24;6.32;62.16
63202;DHT22;49296;48.188;11.566;2023-04-03T11:10:55;6.20;62.86
63202;DHT22;49296;48.188;11.566;2023-04-03T11:13:26;6.46;62.95
63202;DHT22;49296;48.188;11.566;2023-04-03T11:15:57;6.41;63.41
63202;DHT22;49296;48.188;11.566;2023-04-03T11:18:27;6.57;63.31
63202;DHT22;49296;48.188;11.566;2023-04-03T11:21:02;6.58;62.50
63202;DHT22;49296;48.188;11.566;2023-04-03T11:23:33;6.53;62.19
63202;DHT22;49296;48.188;11.566;2023-04-03T11:26:08;6.44;63.31
63202;DHT22;49296;48.188;11.566;2023-04-03T11:28:36;6.54;62.84
63202;DHT22;49296;48.188;11.566;2023-04-03T11:31:12;6.55;59.61
63202;DHT22;49296;48.188;11.566;2023-04-03T11:33:47;6.63;59.21
63202;DHT22;49296;48.188;11.566;2023-04-03T11:36:21;6.55;58.66
63202;DHT22;49296;48.188;11.566;2023-04-03T11:38:49;6.57;57.96
63202;DHT22;49296;48.188;11.566;2023-04-03T11:41:16;6.53;56.57
63202;DHT22;49296;48.188;11.566;2023-04-03T11:43:56;6.64;56.65
63202;DHT22;49296;48.188;11.566;2023-04-03T11:46:49;6.87;55.24
63202;DHT22;49296;48.188;11.566;2023-04-03T11:52:59;6.63;55.09
63202;DHT22;49296;48.188;11.566;2023-04-03T11:55:51;6.46;54.28
63202;DHT22;49296;48.188;11.566;2023-04-03T11:58:20;6.64;54.47
63202;DHT22;49296;48.188;11.566;2023-04-03T12:00:59;6.64;54.11
63202;DHT22;49296;48.188;11.566;2023-04-03T12:04:03;6.85;54.11
63202;DHT22;49296;48.188;11.566;2023-04-03T12:06:54;7.27;53.98
63202;DHT22;49296;48.188;11.566;2023-04-03T12:09:54;7.26;53.02
63202;DHT22;49296;48.188;11.566;2023-04-03T12:12:29;7.20;51.44
63202;DHT22;49296;48.188;11.566;2023-04-03T12:17:53;7.12;51.34
63202;DHT22;49296;48.188;11.566;2023-04-03T12:20:56;7.40;50.29
63202;DHT22;49296;48.188;11.566;2023-04-03T12:23:29;7.64;50.46
63202;DHT22;49296;48.188;11.566;2023-04-03T12:26:02;7.58;49.49
63202;DHT22;49296;48.188;11.566;2023-04-03T12:28:36;7.72;49.96
63202;DHT22;49296;48.188;11.566;2023-04-03T12:31:04;7.71;50.03
63202;DHT22;49296;48.188;11.566;2023-04-03T12:33:51;7.92;49.52
63202;DHT22;49296;48.188;11.566;2023-04-03T12:36:33;8.16;50.68
63202;DHT22;49296;48.188;11.566;2023-04-03T12:39:16;8.30;50.12
63202;DHT22;49296;48.188;11.566;2023-04-03T12:41:53;8.52;48.70
63202;DHT22;49296;48.188;11.566;2023-04-03T12:44:37;8.69;49.00
63202;DHT22;49296;48.188;11.566;2023-04-03T12:47:19;8.65;49.08
63202;DHT22;49296;48.188;11.566;2023-04-03T12:49:49;8.52;49.93
63202;DHT22;49296;48.188;11.566;2023-04-03T12:52:29;9.09;48.14
63202;DHT22;49296;48.188;11.566;2023-04-03T12:54:58;8.90;47.76
63202;DHT22;49296;48.188;11.566;2023-04-03T12:57:27;8.45;49.18
63202;DHT22;49296;48.188;11.566;2023-04-03T12:59:54;8.45;49.18
63202;DHT22;49296;48.188;11.566;2023-04-03T13:02:23;8.16;49.25
63202;DHT22;49296;48.188;11.566;2023-04-03T13:04:51;7.86;49.86
63202;DHT22;49296;48.188;11.566;2023-04-03T13:07:22;7.77;49.65
63202;DHT22;49296;48.188;11.566;2023-04-03T13:09:58;7.77;50.01
63202;DHT22;49296;48.188;11.566;2023-04-03T13:12:26;7.97;48.91
63202;DHT22;49296;48.188;11.566;2023-04-03T13:14:53;7.78;48.14
63202;DHT22;49296;48.188;11.566;2023-04-03T13:17:21;7.75;48.44
63202;DHT22;49296;48.188;11.566;2023-04-03T13:19:49;7.50;48.95
63202;DHT22;49296;48.188;11.566;2023-04-03T13:22:27;7.51;48.55
63202;DHT22;49296;48.188;11.566;2023-04-03T13:24:57;7.71;48.87
63202;DHT22;49296;48.188;11.566;2023-04-03T13:27:25;7.65;48.77
63202;DHT22;49296;48.188;11.566;2023-04-03T13:30:21;7.68;49.43
63202;DHT22;49296;48.188;11.566;2023-04-03T13:32:50;7.58;50.06
63202;DHT22;49296;48.188;11.566;2023-04-03T13:35:40;7.54;50.83
63202;DHT22;49296;48.188;11.566;2023-04-03T13:38:23;7.58;50.74
63202;DHT22;49296;48.188;11.566;2023-04-03T13:41:23;7.13;50.59
63202;DHT22;49296;48.188;11.566;2023-04-03T13:43:50;6.95;50.63
63202;DHT22;49296;48.188;11.566;2023-04-03T13:46:24;6.98;50.47
63202;DHT22;49296;48.188;11.566;2023-04-03T13:48:53;7.03;50.91
63202;DHT22;49296;48.188;11.566;2023-04-03T13:51:23;7.09;50.06
63202;DHT22;49296;48.188;11.566;2023-04-03T13:53:55;7.20;50.41
63202;DHT22;49296;48.188;11.566;2023-04-03T13:56:30;7.51;50.54
63202;DHT22;49296;48.188;11.566;2023-04-03T13:59:02;7.60;48.29
63202;DHT22;49296;48.188;11.566;2023-04-03T14:01:42;7.03;49.39
63202;DHT22;49296;48.188;11.566;2023-04-03T14:04:11;7.15;49.09
63202;DHT22;49296;48.188;11.566;2023-04-03T14:06:38;7.33;48.90
63202;DHT22;49296;48.188;11.566;2023-04-03T14:09:06;6.99;49.19
63202;DHT22;49296;48.188;11.566;2023-04-03T14:11:33;7.36;48.77
63202;DHT22;49296;48.188;11.566;2023-04-03T14:14:03;7.54;48.38
63202;DHT22;49296;48.188;11.566;2023-04-03T14:16:37;7.81;48.16
63202;DHT22;49296;48.188;11.566;2023-04-03T14:19:14;8.14;46.08
63202;DHT22;49296;48.188;11.566;2023-04-03T14:21:43;7.99;46.25
63202;DHT22;49296;48.188;11.566;2023-04-03T14:24:10;8.87;43.79
63202;DHT22;49296;48.188;11.566;2023-04-03T14:26:38;9.42;42.72
63202;DHT22;49296;48.188;11.566;2023-04-03T14:29:04;9.34;42.49
63202;DHT22;49296;48.188;11.566;2023-04-03T14:31:31;9.85;41.36
63202;DHT22;49296;48.188;11.566;2023-04-03T14:33:58;9.66;42.57
63202;DHT22;49296;48.188;11.566;2023-04-03T14:36:27;9.39;41.55
63202;DHT22;49296;48.188;11.566;2023-04-03T14:38:55;8.80;42.46
63202;DHT22;49296;48.188;11.566;2023-04-03T14:41:25;8.61;43.44
63202;DHT22;49296;48.188;11.566;2023-04-03T14:43:52;7.82;43.70
63202;DHT22;49296;48.188;11.566;2023-04-03T14:46:22;7.47;44.68
63202;DHT22;49296;48.188;11.566;2023-04-03T14:48:50;7.44;45.65
63202;DHT22;49296;48.188;11.566;2023-04-03T14:51:17;7.38;44.67
63202;DHT22;49296;48.188;11.566;2023-04-03T14:53:44;7.24;45.20
63202;DHT22;49296;48.188;11.566;2023-04-03T14:56:12;7.51;45.10
63202;DHT22;49296;48.188;11.566;2023-04-03T14:58:41;7.78;44.10
63202;DHT22;49296;48.188;11.566;2023-04-03T15:01:09;7.90;44.17
63202;DHT22;49296;48.188;11.566;2023-04-03T15:03:37;8.90;43.15
63202;DHT22;49296;48.188;11.566;2023-04-03T15:06:04;9.83;40.81
63202;DHT22;49296;48.188;11.566;2023-04-03T15:08:30;10.34;40.33
63202;DHT22;49296;48.188;11.566;2023-04-03T15:10:57;10.69;39.40
63202;DHT22;49296;48.188;11.566;2023-04-03T15:13:24;10.73;38.19
63202;DHT22;49296;48.188;11.566;2023-04-03T15:15:53;11.39;36.76
63202;DHT22;49296;48.188;11.566;2023-04-03T15:18:21;11.61;37.13
63202;DHT22;49296;48.188;11.566;2023-04-03T15:20:49;11.61;35.39
63202;DHT22;49296;48.188;11.566;2023-04-03T15:23:16;11.32;35.83
63202;DHT22;49296;48.188;11.566;2023-04-03T15:25:44;10.38;36.09
63202;DHT22;49296;48.188;11.566;2023-04-03T15:28:18;10.28;36.03
63202;DHT22;49296;48.188;11.566;2023-04-03T15:30:45;10.56;36.36
63202;DHT22;49296;48.188;11.566;2023-04-03T15:33:13;10.72;36.28
63202;DHT22;49296;48.188;11.566;2023-04-03T15:35:43;10.37;35.98
63202;DHT22;49296;48.188;11.566;2023-04-03T15:38:10;9.87;35.93
63202;DHT22;49296;48.188;11.566;2023-04-03T15:40:37;10.46;36.57
63202;DHT22;49296;48.188;11.566;2023-04-03T15:43:04;10.93;35.19
63202;DHT22;49296;48.188;11.566;2023-04-03T15:45:31;11.27;34.95
63202;DHT22;49296;48.188;11.566;2023-04-03T15:47:59;11.28;33.41
63202;DHT22;49296;48.188;11.566;2023-04-03T15:50:28;10.89;34.86
63202;DHT22;49296;48.188;11.566;2023-04-03T15:52:54;10.10;35.66
63202;DHT22;49296;48.188;11.566;2023-04-03T15:55:24;10.52;35.26
63202;DHT22;49296;48.188;11.566;2023-04-03T15:57:51;10.58;36.31